Wednesday, January 17, 2018, 9:56 AM EST
Back to Local

KORH, Worcester Regional Airport

Location: Worcester, MA, United States Lat: 42.267
Local Time: 9:56 AM EST (14:56 GMT) Lon: -71.867
Time Zone: US/Eastern Elev: 1010 ft

Show me the last for .
Show Decoded

2018-01-17 09:16 METAR KORH 171416Z 05003KT 3/4SM R11/4000V5500FT -SN BR OVC002 M02/M03 A3023 RMK
                 AO2 P0001 T10221033 =
2018-01-17 08:54 METAR KORH 171354Z 06005KT 1SM R11/P6000FT -SN BR OVC002 M02/M03 A3023 RMK AO2
                 SLP249 P0002 T10221033 =
2018-01-17 08:42 METAR KORH 171342Z 06005KT 1SM R11/6000VP6000FT -SN BR OVC002 M02/M03 A3022 =
2018-01-17 08:18 METAR KORH 171318Z 07004KT 3/4SM R11/5000V6000FT -SN BR OVC002 M02/M03 A3023 RMK
                 AO2 P0001 T10221033 =
2018-01-17 08:02 METAR KORH 171302Z 06004KT 1SM R11/6000VP6000FT -SN BR OVC002 M02/M04 A3023 RMK
                 AO2 P0000 T10221039 =
2018-01-17 07:54 METAR KORH 171254Z 06004KT 3/4SM R11/6000VP6000FT -SN BR OVC002 M02/M03 A3023
                 RMK AO2 SLP251 P0002 T10221033 =
2018-01-17 07:41 METAR KORH 171241Z 05003KT 3/4SM R11/5500VP6000FT -SN BR OVC002 M02/M04 A3024
                 RMK AO2 P0001 T10221039 =
2018-01-17 06:54 METAR KORH 171154Z 05003KT 1SM R11/P6000FT -SN BR OVC003 M02/M03 A3025 RMK AO2
                 SLP259 P0003 60013 70013 T10221033 11017 21022 56010 =
2018-01-17 06:21 METAR KORH 171121Z 06005KT 1 3/4SM -SN BR OVC003 M02/M03 A3026 RMK AO2 P0000
                 T10221033 =
2018-01-17 06:12 METAR KORH 171112Z 07004KT 3SM -SN BR OVC003 M02/M03 A3027 RMK AO2 P0000
                 T10221033 =
2018-01-17 05:54 METAR KORH 171054Z 07003KT 1SM R11/P6000FT -SN BR OVC003 M02/M03 A3026 RMK AO2
                 SLP262 P0004 T10221033 =
2018-01-17 05:30 METAR KORH 171030Z AUTO 09005KT 3/4SM R11/5500VP6000FT -SN BR OVC002 M02/M03
                 A3026 RMK AO2 P0002 T10221033 =
2018-01-17 04:54 METAR KORH 170954Z AUTO 09004KT 1 3/4SM -SN BR OVC002 M02/M03 A3027 RMK AO2
                 SLP265 P0002 T10221033 =
2018-01-17 04:46 METAR KORH 170946Z AUTO 11005KT 1 3/4SM -SN BR OVC002 M02/M03 A3027 RMK AO2
                 P0002 T10221033 =
2018-01-17 04:36 METAR KORH 170936Z AUTO 11005KT 2SM -SN BR OVC002 M02/M03 A3027 RMK AO2 P0001
                 T10221033 =
2018-01-17 04:15 METAR KORH 170915Z AUTO 10004KT 1 1/4SM -SN BR OVC003 M02/M03 A3028 RMK AO2
                 P0001 T10221033 =
2018-01-17 04:03 METAR KORH 170903Z AUTO 09004KT 1/2SM R11/P6000FT -SN FZFG VV003 M02/M03 A3028
                 RMK AO2 P0000 T10221033 =
2018-01-17 03:54 METAR KORH 170854Z AUTO 08004KT 3/4SM R11/P6000FT -SN BR VV005 M02/M03 A3028 RMK
                 AO2 SLP269 P0003 60004 T10221033 58013 =
2018-01-17 03:46 METAR KORH 170846Z AUTO 09004KT 1SM R11/P6000FT -SN BR VV007 M02/M03 A3029 RMK
                 AO2 P0002 T10221033 =
2018-01-17 03:16 METAR KORH 170816Z AUTO 08003KT 1SM R11/P6000FT -SN BR SCT007 OVC011 M02/M03
                 A3030 RMK AO2 P0001 T10221033 =
2018-01-17 02:54 METAR KORH 170754Z AUTO 10003KT 1 1/2SM -SN BR BKN007 OVC023 M02/M03 A3031 RMK
                 AO2 SNB00 SLP277 P0001 T10221033 =
2018-01-17 02:44 METAR KORH 170744Z AUTO 11004KT 1 3/4SM -SN BR BKN008 OVC023 M02/M04 A3031 RMK
                 AO2 SNB00 P0000 T10171039 =
2018-01-17 02:33 METAR KORH 170733Z AUTO 12004KT 2 1/2SM -SN BR FEW008 FEW016 OVC023 M02/M04
                 A3031 RMK AO2 SNB00 P0000 T10171039 =
2018-01-17 02:19 METAR KORH 170719Z AUTO 13003KT 4SM -SN BR FEW016 OVC027 M02/M04 A3031 RMK AO2
                 SNB00 P0000 T10171039 =
2018-01-17 01:54 METAR KORH 170654Z AUTO 12005KT 10SM FEW023 OVC032 M02/M03 A3031 RMK AO2 SNE41
                 SLP280 P0000 T10171033 =
2018-01-17 01:42 METAR KORH 170642Z AUTO 14005KT 9SM FEW023 OVC030 M02/M03 A3032 =
2018-01-17 01:30 METAR KORH 170630Z AUTO 14005KT 4SM -SN BR SCT014 OVC028 M02/M03 A3032 RMK AO2
                 P0000 T10171033 =
2018-01-17 01:04 METAR KORH 170604Z AUTO 17005KT 7SM -SN SCT006 OVC013 M02/M03 A3032 RMK AO2
                 P0000 T10171033 =
2018-01-17 00:54 METAR KORH 170554Z 17005KT 9SM -SN BKN005 OVC011 M02/M03 A3032 RMK AO2 SNB50
                 SLP282 P0000 60000 T10171033 11017 21022 57015 =
2018-01-17 00:07 METAR KORH 170507Z 15004KT 10SM BKN005 OVC023 M02/M04 A3033 RMK AO2 T10171039 =
2018-01-16 23:54 METAR KORH 170454Z 15004KT 10SM FEW006 BKN023 OVC065 M02/M04 A3034 RMK AO2
                 SLP288 T10171039 410171083 =
2018-01-16 23:39 METAR KORH 170439Z 18004KT 10SM FEW006 SCT035 OVC065 M02/M04 A3034 RMK AO2
                 T10171039 =
2018-01-16 23:28 METAR KORH 170428Z 17005KT 10SM SCT006 BKN027 OVC065 M02/M04 A3034 RMK AO2
                 T10171039 =
2018-01-16 23:17 METAR KORH 170417Z 17005KT 10SM BKN006 BKN028 OVC070 M02/M04 A3034 =
2018-01-16 23:08 METAR KORH 170408Z 17005KT 10SM SCT007 BKN025 OVC070 M02/M04 A3035 =
2018-01-16 22:54 METAR KORH 170354Z 17005KT 10SM BKN025 OVC033 M02/M04 A3035 RMK AO2 SLP293
                 T10171044 =
2018-01-16 22:07 METAR KORH 170307Z 17006KT 10SM SCT008 OVC022 M02/M05 A3037 RMK AO2 T10171050 =
2018-01-16 21:54 METAR KORH 170254Z 16005KT 10SM BKN008 OVC024 M02/M05 A3037 RMK AO2 SLP300
                 T10171050 56007 =
2018-01-16 20:54 METAR KORH 170154Z 00000KT 10SM FEW008 OVC021 M02/M06 A3037 RMK AO2 SLP301
                 T10171056 =
2018-01-16 20:50 METAR KORH 170150Z 00000KT 10SM SCT009 OVC021 M02/M06 A3037 RMK AO2 =
2018-01-16 20:33 METAR KORH 170133Z 15003KT 10SM BKN008 OVC020 M02/M06 A3038 RMK AO2 T10171056 =
2018-01-16 19:54 METAR KORH 170054Z 15004KT 10SM BKN010 OVC014 M02/M06 A3039 RMK AO2 SLP307
                 T10171061 =
2018-01-16 19:45 METAR KORH 170045Z 14005KT 10SM BKN012 OVC022 M02/M06 A3039 RMK AO2 T10171061 =
2018-01-16 18:54 METAR KORH 162354Z 00000KT 10SM OVC021 M02/M06 A3039 RMK AO2 SLP309 T10221061
                 11017 21022 52002 =
2018-01-16 18:18 METAR KORH 162318Z 17005KT 10SM BKN023 OVC060 M02/M06 A3039 RMK AO2 T10221061 =
2018-01-16 17:54 METAR KORH 162254Z 16004KT 10SM OVC060 M02/M06 A3039 RMK AO2 SLP308 T10221061 =
2018-01-16 16:54 METAR KORH 162154Z 20003KT 10SM SCT024 OVC070 M02/M06 A3039 RMK AO2 SLP308
                 T10171061 =
2018-01-16 15:54 METAR KORH 162054Z 20005KT 10SM OVC075 M02/M06 A3039 RMK AO2 SLP307 T10171061
                 56003 =
2018-01-16 15:28 METAR KORH 162028Z 21006KT 10SM SCT021 OVC075 M02/M06 A3038 RMK AO2 T10221061 =
2018-01-16 14:54 METAR KORH 161954Z 20006KT 10SM OVC019 M02/M07 A3039 RMK AO2 SLP309 T10171067 =
2018-01-16 13:54 METAR KORH 161854Z 19007KT 10SM BKN018 OVC023 M02/M07 A3039 RMK AO2 SLP308
                 T10221072 =
2018-01-16 12:54 METAR KORH 161754Z 20007KT 10SM OVC017 M02/M08 A3040 RMK AO2 SLP311 T10221078
                 11022 21083 58020 =
2018-01-16 12:38 METAR KORH 161738Z 25009KT 10SM BKN017 OVC090 M02/M07 A3040 =
2018-01-16 12:01 METAR KORH 161701Z 23010KT 10SM SCT019 OVC085 M03/M08 A3042 RMK AO2 T10281083 =
2018-01-16 11:54 METAR KORH 161654Z 22007KT 10SM OVC015 M03/M08 A3042 RMK AO2 SLP318 T10331083 =
2018-01-16 10:54 METAR KORH 161554Z 20007KT 10SM OVC015 M04/M09 A3044 RMK AO2 SLP327 T10441094 =

Support USWX by starting your Amazon purchase here.